createdAt,value
2022-07-29T00:01:33.100Z,65.60
2022-07-29T00:06:41.325Z,65.50
2022-07-29T00:11:50.013Z,65.56
2022-07-29T00:16:58.518Z,65.80
2022-07-29T00:22:06.419Z,66.05
2022-07-29T00:27:14.331Z,66.31
2022-07-29T00:32:22.370Z,66.32
2022-07-29T00:37:30.504Z,66.28
2022-07-29T00:42:46.431Z,66.21
2022-07-29T00:47:54.436Z,66.10
2022-07-29T00:53:02.881Z,66.19
2022-07-29T00:58:11.406Z,66.53
2022-07-29T01:03:19.819Z,66.68
2022-07-29T01:08:28.625Z,66.96
2022-07-29T01:13:37.631Z,67.16
2022-07-29T01:18:49.777Z,67.31
2022-07-29T01:24:21.029Z,67.33
2022-07-29T01:29:35.975Z,67.36
2022-07-29T01:34:53.619Z,67.69
2022-07-29T01:40:04.578Z,67.83
2022-07-29T01:45:18.570Z,67.81
2022-07-29T01:50:31.287Z,68.11
2022-07-29T01:55:41.628Z,68.33
2022-07-29T02:00:51.417Z,68.57
2022-07-29T02:06:02.698Z,68.59
2022-07-29T02:11:11.765Z,68.41
2022-07-29T02:16:23.986Z,68.34
2022-07-29T02:21:35.779Z,68.32
2022-07-29T02:26:45.798Z,68.36
2022-07-29T02:31:56.512Z,68.33
2022-07-29T02:37:06.388Z,68.42
2022-07-29T02:42:18.182Z,68.48
2022-07-29T02:47:41.429Z,68.46
2022-07-29T02:52:56.816Z,68.40
2022-07-29T02:58:11.897Z,68.25
2022-07-29T03:03:21.727Z,68.17
2022-07-29T03:08:31.308Z,69.33
2022-07-29T03:13:40.294Z,69.44
2022-07-29T03:18:49.551Z,69.13
2022-07-29T03:23:58.624Z,69.01
2022-07-29T03:29:06.667Z,68.92
2022-07-29T03:34:15.366Z,68.95
2022-07-29T03:39:27.695Z,69.13
2022-07-29T03:44:37.626Z,69.31
2022-07-29T03:49:49.335Z,69.58
2022-07-29T03:54:57.707Z,70.21
2022-07-29T04:00:07.248Z,70.85
2022-07-29T04:05:19.742Z,71.37
2022-07-29T04:10:31.743Z,71.83
2022-07-29T04:15:41.293Z,71.27
2022-07-29T04:20:49.964Z,71.14
2022-07-29T04:25:58.500Z,71.39
2022-07-29T04:31:06.902Z,71.73
2022-07-29T04:36:26.880Z,71.93
2022-07-29T04:41:38.507Z,72.08
2022-07-29T04:46:46.760Z,72.68
2022-07-29T04:51:55.173Z,73.35
2022-07-29T04:57:03.618Z,74.08
2022-07-29T05:02:11.758Z,74.81
2022-07-29T05:07:20.198Z,75.48
2022-07-29T05:12:29.055Z,75.97
2022-07-29T05:17:37.387Z,76.36
2022-07-29T05:22:45.508Z,76.61
2022-07-29T05:27:54.835Z,76.67
2022-07-29T05:33:02.969Z,76.57
2022-07-29T05:38:11.018Z,76.27
2022-07-29T05:43:19.023Z,75.95
2022-07-29T05:48:27.342Z,75.56
2022-07-29T05:53:35.462Z,75.08
2022-07-29T05:58:43.689Z,74.45
2022-07-29T06:03:52.239Z,73.77
2022-07-29T06:09:00.294Z,72.80
2022-07-29T06:14:21.202Z,71.83
2022-07-29T06:19:30.222Z,70.71
2022-07-29T06:24:42.821Z,69.61
2022-07-29T06:29:51.364Z,68.51
2022-07-29T06:35:24.448Z,67.57
2022-07-29T06:40:45.605Z,66.74
2022-07-29T06:45:53.693Z,66.02
2022-07-29T06:51:03.261Z,65.61
2022-07-29T06:56:14.044Z,64.93
2022-07-29T07:01:22.773Z,64.33
2022-07-29T07:06:31.205Z,63.63
2022-07-29T07:11:39.833Z,62.96
2022-07-29T07:16:48.013Z,62.32
2022-07-29T07:21:55.363Z,61.76
2022-07-29T07:27:04.044Z,61.32
2022-07-29T07:32:14.615Z,61.03
2022-07-29T07:37:23.591Z,60.70
2022-07-29T07:42:32.000Z,60.62
2022-07-29T07:47:40.764Z,60.58
2022-07-29T07:52:59.141Z,60.46
2022-07-29T07:58:08.142Z,60.11
2022-07-29T08:03:17.373Z,59.49
2022-07-29T08:08:26.392Z,58.56
2022-07-29T08:13:35.266Z,57.88
2022-07-29T08:18:45.508Z,57.26
2022-07-29T08:24:00.642Z,57.07
2022-07-29T08:29:09.840Z,56.62
2022-07-29T08:34:18.051Z,55.78
2022-07-29T08:39:26.720Z,55.29
2022-07-29T08:44:37.098Z,54.94
2022-07-29T08:49:46.542Z,54.87
2022-07-29T08:54:55.888Z,54.68
2022-07-29T09:00:08.188Z,54.37
2022-07-29T09:05:21.184Z,54.09
2022-07-29T09:10:29.359Z,53.89
2022-07-29T09:15:37.403Z,53.89
2022-07-29T09:21:15.005Z,54.03
2022-07-29T09:26:31.629Z,54.54
2022-07-29T09:31:42.033Z,54.30
2022-07-29T09:36:53.366Z,53.98
2022-07-29T09:42:03.851Z,53.92
2022-07-29T09:47:12.415Z,53.78
2022-07-29T09:52:20.601Z,53.54
2022-07-29T09:57:31.129Z,53.00
2022-07-29T10:02:40.917Z,52.91
2022-07-29T10:07:57.173Z,52.91
2022-07-29T10:13:13.453Z,52.89
2022-07-29T10:18:24.542Z,52.76
2022-07-29T10:23:47.130Z,52.76
2022-07-29T10:28:56.484Z,52.58
2022-07-29T10:34:17.911Z,52.28
2022-07-29T10:39:49.690Z,51.94
2022-07-29T10:44:59.304Z,51.86
2022-07-29T10:50:12.816Z,51.80
2022-07-29T10:55:43.051Z,51.50
2022-07-29T11:00:54.204Z,51.20
2022-07-29T11:06:02.103Z,50.84
2022-07-29T11:11:43.898Z,50.30
2022-07-29T11:17:08.716Z,49.64
2022-07-29T11:22:35.605Z,49.34
2022-07-29T11:27:44.657Z,49.98
2022-07-29T11:32:54.656Z,49.21
2022-07-29T11:38:29.297Z,48.59
2022-07-29T11:43:53.821Z,48.65
2022-07-29T11:49:03.542Z,48.46
2022-07-29T11:54:27.227Z,48.15
2022-07-29T11:59:43.104Z,48.08
2022-07-29T12:04:58.617Z,47.40
2022-07-29T12:10:11.450Z,47.07
2022-07-29T12:15:46.286Z,46.97
2022-07-29T12:21:05.192Z,46.86
2022-07-29T12:26:25.397Z,46.73
2022-07-29T12:31:43.517Z,46.53
2022-07-29T12:36:53.155Z,46.27
2022-07-29T12:42:04.206Z,46.00
2022-07-29T12:47:13.076Z,45.89
2022-07-29T12:52:35.022Z,45.41
2022-07-29T12:57:53.634Z,44.98
2022-07-29T13:03:03.672Z,44.24
2022-07-29T13:08:29.640Z,43.96
2022-07-29T13:14:05.738Z,43.67
2022-07-29T13:19:16.587Z,43.81
2022-07-29T13:24:24.630Z,43.76
2022-07-29T13:29:33.327Z,43.49
2022-07-29T13:34:42.022Z,43.16
2022-07-29T13:39:53.017Z,43.06
2022-07-29T13:45:02.484Z,43.00
2022-07-29T13:50:12.755Z,43.01
2022-07-29T13:55:21.028Z,43.13
2022-07-29T14:00:29.122Z,43.20
2022-07-29T14:05:38.811Z,43.27
2022-07-29T14:10:47.269Z,43.31
2022-07-29T14:15:56.300Z,43.28
2022-07-29T14:21:05.088Z,43.20
2022-07-29T14:31:47.719Z,43.28
2022-07-29T14:36:57.367Z,43.45
2022-07-29T14:42:05.401Z,43.49
2022-07-29T14:47:13.788Z,43.40
2022-07-29T14:52:23.135Z,43.16
2022-07-29T14:57:31.355Z,43.30
2022-07-29T15:03:00.347Z,43.14
2022-07-29T15:08:09.642Z,43.15
2022-07-29T15:13:18.810Z,43.01
2022-07-29T15:18:27.461Z,43.00
2022-07-29T15:23:37.698Z,42.81
2022-07-29T15:28:46.178Z,42.70
2022-07-29T15:33:57.643Z,42.61
2022-07-29T15:39:08.641Z,42.54
2022-07-29T15:44:17.330Z,42.63
2022-07-29T15:49:47.361Z,42.58
2022-07-29T15:54:59.265Z,42.65
2022-07-29T16:00:09.248Z,42.64
2022-07-29T16:05:17.896Z,42.65
2022-07-29T16:10:26.664Z,42.60
2022-07-29T16:15:35.153Z,42.55
2022-07-29T16:20:43.460Z,42.59
2022-07-29T16:26:01.281Z,42.49
2022-07-29T16:31:11.860Z,42.51
2022-07-29T16:36:20.899Z,42.58
2022-07-29T16:41:30.162Z,42.60
2022-07-29T16:46:39.006Z,42.65
2022-07-29T16:51:49.361Z,42.67
2022-07-29T16:57:01.141Z,42.66
2022-07-29T17:02:10.445Z,42.65
2022-07-29T17:07:19.639Z,42.54
2022-07-29T17:12:28.010Z,42.58
2022-07-29T17:17:38.903Z,42.64
2022-07-29T17:22:47.771Z,42.70
2022-07-29T17:28:00.548Z,42.82
2022-07-29T17:33:09.296Z,42.92
2022-07-29T17:38:18.210Z,42.98
2022-07-29T17:43:26.898Z,43.00
2022-07-29T17:48:35.729Z,43.05
2022-07-29T17:53:43.901Z,43.12
2022-07-29T17:58:52.439Z,43.33
2022-07-29T18:04:00.489Z,43.53
2022-07-29T18:09:08.421Z,43.72
2022-07-29T18:14:17.495Z,43.89
2022-07-29T18:19:25.678Z,44.35
2022-07-29T18:24:34.428Z,44.84
2022-07-29T18:29:42.536Z,45.27
2022-07-29T18:34:50.590Z,45.67
2022-07-29T18:39:59.636Z,46.04
2022-07-29T18:45:12.115Z,46.29
2022-07-29T18:50:29.966Z,46.50
2022-07-29T18:55:38.281Z,46.71
2022-07-29T19:00:46.802Z,46.86
2022-07-29T19:05:55.992Z,47.10
2022-07-29T19:11:04.254Z,47.41
2022-07-29T19:16:14.371Z,47.81
2022-07-29T19:21:22.770Z,48.23
2022-07-29T19:26:31.260Z,48.63
2022-07-29T19:31:40.679Z,49.11
2022-07-29T19:36:49.791Z,49.51
2022-07-29T19:42:02.926Z,49.90
2022-07-29T19:47:12.047Z,50.48
2022-07-29T19:52:27.249Z,51.07
2022-07-29T19:57:41.117Z,51.46
2022-07-29T20:02:52.232Z,51.77
2022-07-29T20:08:00.745Z,52.15
2022-07-29T20:13:09.792Z,52.56
2022-07-29T20:18:18.594Z,53.00
2022-07-29T20:23:27.893Z,53.37
2022-07-29T20:28:45.273Z,53.64
2022-07-29T20:33:56.976Z,53.86
2022-07-29T20:39:05.830Z,54.10
2022-07-29T20:44:15.365Z,54.33
2022-07-29T20:49:24.172Z,54.62
2022-07-29T20:54:32.534Z,54.80
2022-07-29T20:59:45.646Z,54.97
2022-07-29T21:04:55.602Z,55.19
2022-07-29T21:10:03.643Z,55.44
2022-07-29T21:15:14.290Z,55.67
2022-07-29T21:20:23.510Z,55.92
2022-07-29T21:25:34.867Z,56.01
2022-07-29T21:30:43.670Z,56.10
2022-07-29T21:36:20.292Z,56.37
2022-07-29T21:41:22.306Z,56.60
2022-07-29T21:46:30.150Z,56.99
2022-07-29T21:51:38.247Z,57.16
2022-07-29T21:56:51.077Z,57.31
2022-07-29T22:02:01.372Z,57.45
2022-07-29T22:07:09.487Z,57.79
2022-07-29T22:12:18.084Z,57.96
2022-07-29T22:17:26.280Z,58.15
2022-07-29T22:22:34.509Z,58.46
2022-07-29T22:27:43.401Z,58.83
2022-07-29T22:32:51.543Z,59.06
2022-07-29T22:37:59.500Z,59.23
2022-07-29T22:43:07.772Z,59.37
2022-07-29T22:48:15.950Z,59.51
2022-07-29T22:53:24.181Z,59.58
2022-07-29T22:58:32.350Z,59.72
2022-07-29T23:03:39.721Z,60.01
2022-07-29T23:08:47.846Z,60.23
2022-07-29T23:13:55.861Z,60.25
2022-07-29T23:19:03.782Z,60.30
2022-07-29T23:24:12.133Z,60.36
2022-07-29T23:29:19.978Z,60.61
2022-07-29T23:34:28.241Z,60.88
2022-07-29T23:39:36.299Z,61.08
2022-07-29T23:44:44.801Z,61.39
2022-07-29T23:49:52.777Z,61.54
2022-07-29T23:55:38.822Z,61.67
